Terminal Aerodrome Forecast
Issued by NWS

Home | Current Version | Previous Version | Graphics & Text | Print | Product List | Glossary On
Versions: 1 2 3 4 5 6 7 8 9 10 11 12 13 14 15 16 17 18 19 20 21 22 23 24 25 26 27 28 29 30 31 32 33 34 35 36 37 38 39 40
000
FTUS43 KLOT 052320
TAFORD
TAF
KORD 052320Z 0600/0706 04009KT 3SM BR OVC005
     FM060200 05007KT 1 1/2SM BR OVC003
     FM060600 06005KT 1/2SM FG OVC002
     FM061300 VRB04KT 4SM BR OVC007
     FM061600 16005KT P6SM SCT020 BKN040
     FM061900 10008KT P6SM BKN050
     FM070300 12005KT 6SM HZ FEW004 SCT050=

USA.gov is the U.S. government's official web portal to all federal, state and local government web resources and services.